West Farmington, Ohio
Current Conditions -  °F | °C
As of 1:51 AM on Thursday 27 Nov 2014 (Local Time) from KYNG Reporting Station
Overcast Overcast  
Wind Chill: -3°   Ceiling: 5000
Heat Index:   Visibility: 10mi
Dew Point: -3°   Wind: 5mph
Humidity: 79%   Direction: 290°WNW
Pressure: 29.98"   Gusts: NA
Location:  41.39°N, 80.97°W
Report Text: KYNG 270651Z 29004KT 10SM OVC050 00/M03 A2998 RMK AO2 SLP163 T00001033
Loading
Personal Weather Stations






























Interactive Weather Map New forecast layout! Learn more

10-Day Weather Forecast

Advertisements
Track Severe Weather on mobile